sensor_id;sensor_type;location;lat;lon;timestamp;P1;durP1;ratioP1;P2;durP2;ratioP2
63653;SDS011;49809;47.418;19.080;2022-07-23T00:01:25;4.60;;;3.47;;
63653;SDS011;49809;47.418;19.080;2022-07-23T00:04:37;4.95;;;3.45;;
63653;SDS011;49809;47.418;19.080;2022-07-23T00:07:40;6.55;;;3.50;;
63653;SDS011;49809;47.418;19.080;2022-07-23T00:10:44;4.68;;;3.37;;
63653;SDS011;49809;47.418;19.080;2022-07-23T00:13:47;6.97;;;3.60;;
63653;SDS011;49809;47.418;19.080;2022-07-23T00:16:50;4.40;;;3.55;;
63653;SDS011;49809;47.418;19.080;2022-07-23T00:19:56;4.37;;;3.20;;
63653;SDS011;49809;47.418;19.080;2022-07-23T00:23:02;4.70;;;3.42;;
63653;SDS011;49809;47.418;19.080;2022-07-23T00:26:08;4.25;;;3.08;;
63653;SDS011;49809;47.418;19.080;2022-07-23T00:29:11;5.10;;;3.55;;
63653;SDS011;49809;47.418;19.080;2022-07-23T00:32:18;4.62;;;3.28;;
63653;SDS011;49809;47.418;19.080;2022-07-23T00:35:43;6.32;;;3.70;;
63653;SDS011;49809;47.418;19.080;2022-07-23T00:38:49;3.85;;;3.25;;
63653;SDS011;49809;47.418;19.080;2022-07-23T00:41:55;5.03;;;3.55;;
63653;SDS011;49809;47.418;19.080;2022-07-23T00:44:59;4.35;;;3.65;;
63653;SDS011;49809;47.418;19.080;2022-07-23T00:48:05;4.68;;;3.53;;
63653;SDS011;49809;47.418;19.080;2022-07-23T00:51:10;7.72;;;3.90;;
63653;SDS011;49809;47.418;19.080;2022-07-23T00:54:13;4.95;;;3.70;;
63653;SDS011;49809;47.418;19.080;2022-07-23T00:57:16;4.62;;;3.33;;
63653;SDS011;49809;47.418;19.080;2022-07-23T01:00:28;5.37;;;3.58;;
63653;SDS011;49809;47.418;19.080;2022-07-23T01:03:36;3.87;;;3.28;;
63653;SDS011;49809;47.418;19.080;2022-07-23T01:06:39;4.60;;;3.50;;
63653;SDS011;49809;47.418;19.080;2022-07-23T01:09:45;4.07;;;3.55;;
63653;SDS011;49809;47.418;19.080;2022-07-23T01:12:48;6.97;;;3.80;;
63653;SDS011;49809;47.418;19.080;2022-07-23T01:15:55;8.18;;;3.58;;
63653;SDS011;49809;47.418;19.080;2022-07-23T01:18:59;6.45;;;3.65;;
63653;SDS011;49809;47.418;19.080;2022-07-23T01:22:06;4.78;;;3.62;;
63653;SDS011;49809;47.418;19.080;2022-07-23T01:25:10;5.35;;;3.22;;
63653;SDS011;49809;47.418;19.080;2022-07-23T01:28:20;5.93;;;3.28;;
63653;SDS011;49809;47.418;19.080;2022-07-23T01:31:24;5.12;;;3.80;;
63653;SDS011;49809;47.418;19.080;2022-07-23T01:34:33;4.22;;;3.25;;
63653;SDS011;49809;47.418;19.080;2022-07-23T01:37:40;4.65;;;3.67;;
63653;SDS011;49809;47.418;19.080;2022-07-23T01:40:44;6.65;;;3.65;;
63653;SDS011;49809;47.418;19.080;2022-07-23T01:46:55;5.43;;;3.33;;
63653;SDS011;49809;47.418;19.080;2022-07-23T01:50:04;5.15;;;3.65;;
63653;SDS011;49809;47.418;19.080;2022-07-23T01:53:09;4.40;;;3.20;;
63653;SDS011;49809;47.418;19.080;2022-07-23T01:56:12;6.32;;;3.62;;
63653;SDS011;49809;47.418;19.080;2022-07-23T01:59:19;7.05;;;3.58;;
63653;SDS011;49809;47.418;19.080;2022-07-23T02:02:22;8.32;;;3.87;;
63653;SDS011;49809;47.418;19.080;2022-07-23T02:05:28;4.72;;;3.92;;
63653;SDS011;49809;47.418;19.080;2022-07-23T02:08:33;5.13;;;3.53;;
63653;SDS011;49809;47.418;19.080;2022-07-23T02:11:36;4.25;;;3.72;;
63653;SDS011;49809;47.418;19.080;2022-07-23T02:14:40;6.05;;;3.97;;
63653;SDS011;49809;47.418;19.080;2022-07-23T02:17:47;7.82;;;3.83;;
63653;SDS011;49809;47.418;19.080;2022-07-23T02:20:52;5.78;;;3.53;;
63653;SDS011;49809;47.418;19.080;2022-07-23T02:23:54;6.57;;;3.55;;
63653;SDS011;49809;47.418;19.080;2022-07-23T02:27:00;5.40;;;3.90;;
63653;SDS011;49809;47.418;19.080;2022-07-23T02:30:07;6.30;;;4.05;;
63653;SDS011;49809;47.418;19.080;2022-07-23T02:33:10;6.22;;;4.00;;
63653;SDS011;49809;47.418;19.080;2022-07-23T02:36:14;4.12;;;3.45;;
63653;SDS011;49809;47.418;19.080;2022-07-23T02:39:23;6.65;;;3.28;;
63653;SDS011;49809;47.418;19.080;2022-07-23T02:42:27;6.35;;;3.95;;
63653;SDS011;49809;47.418;19.080;2022-07-23T02:45:32;5.35;;;3.83;;
63653;SDS011;49809;47.418;19.080;2022-07-23T02:48:35;6.60;;;3.78;;
63653;SDS011;49809;47.418;19.080;2022-07-23T02:51:43;4.82;;;3.55;;
63653;SDS011;49809;47.418;19.080;2022-07-23T02:54:50;6.00;;;3.62;;
63653;SDS011;49809;47.418;19.080;2022-07-23T02:57:54;6.37;;;4.10;;
63653;SDS011;49809;47.418;19.080;2022-07-23T03:01:00;4.93;;;3.65;;
63653;SDS011;49809;47.418;19.080;2022-07-23T03:04:04;4.53;;;3.80;;
63653;SDS011;49809;47.418;19.080;2022-07-23T03:07:06;4.87;;;3.30;;
63653;SDS011;49809;47.418;19.080;2022-07-23T03:10:10;6.62;;;3.60;;
63653;SDS011;49809;47.418;19.080;2022-07-23T03:13:12;5.80;;;3.50;;
63653;SDS011;49809;47.418;19.080;2022-07-23T03:16:15;5.12;;;3.33;;
63653;SDS011;49809;47.418;19.080;2022-07-23T03:19:18;5.35;;;3.62;;
63653;SDS011;49809;47.418;19.080;2022-07-23T03:22:27;5.05;;;3.70;;
63653;SDS011;49809;47.418;19.080;2022-07-23T03:25:38;4.62;;;3.30;;
63653;SDS011;49809;47.418;19.080;2022-07-23T03:28:46;5.25;;;3.85;;
63653;SDS011;49809;47.418;19.080;2022-07-23T03:31:48;6.05;;;3.50;;
63653;SDS011;49809;47.418;19.080;2022-07-23T03:34:54;4.18;;;3.12;;
63653;SDS011;49809;47.418;19.080;2022-07-23T03:37:57;11.20;;;3.67;;
63653;SDS011;49809;47.418;19.080;2022-07-23T03:41:00;4.80;;;3.37;;
63653;SDS011;49809;47.418;19.080;2022-07-23T03:44:04;6.57;;;3.45;;
63653;SDS011;49809;47.418;19.080;2022-07-23T03:47:07;6.22;;;3.55;;
63653;SDS011;49809;47.418;19.080;2022-07-23T03:50:10;5.35;;;3.03;;
63653;SDS011;49809;47.418;19.080;2022-07-23T03:53:14;4.82;;;2.90;;
63653;SDS011;49809;47.418;19.080;2022-07-23T03:56:21;3.97;;;2.97;;
63653;SDS011;49809;47.418;19.080;2022-07-23T03:59:27;7.30;;;3.25;;
63653;SDS011;49809;47.418;19.080;2022-07-23T04:02:33;7.10;;;3.22;;
63653;SDS011;49809;47.418;19.080;2022-07-23T04:05:37;4.20;;;2.85;;
63653;SDS011;49809;47.418;19.080;2022-07-23T04:08:42;3.67;;;2.90;;
63653;SDS011;49809;47.418;19.080;2022-07-23T04:11:49;5.35;;;3.00;;
63653;SDS011;49809;47.418;19.080;2022-07-23T04:14:52;3.37;;;2.67;;
63653;SDS011;49809;47.418;19.080;2022-07-23T04:17:56;3.75;;;2.78;;
63653;SDS011;49809;47.418;19.080;2022-07-23T04:21:03;4.75;;;2.85;;
63653;SDS011;49809;47.418;19.080;2022-07-23T04:24:09;4.62;;;3.00;;
63653;SDS011;49809;47.418;19.080;2022-07-23T04:27:13;3.40;;;2.83;;
63653;SDS011;49809;47.418;19.080;2022-07-23T04:30:22;4.97;;;2.83;;
63653;SDS011;49809;47.418;19.080;2022-07-23T04:33:26;3.40;;;2.67;;
63653;SDS011;49809;47.418;19.080;2022-07-23T04:36:30;6.12;;;3.53;;
63653;SDS011;49809;47.418;19.080;2022-07-23T04:39:33;4.97;;;2.80;;
63653;SDS011;49809;47.418;19.080;2022-07-23T04:42:37;3.35;;;2.72;;
63653;SDS011;49809;47.418;19.080;2022-07-23T04:45:44;5.70;;;3.80;;
63653;SDS011;49809;47.418;19.080;2022-07-23T04:48:53;5.82;;;3.40;;
63653;SDS011;49809;47.418;19.080;2022-07-23T04:51:57;7.70;;;3.20;;
63653;SDS011;49809;47.418;19.080;2022-07-23T04:55:00;8.00;;;3.15;;
63653;SDS011;49809;47.418;19.080;2022-07-23T04:58:03;4.87;;;3.42;;
63653;SDS011;49809;47.418;19.080;2022-07-23T05:01:06;4.37;;;3.00;;
63653;SDS011;49809;47.418;19.080;2022-07-23T05:04:10;8.13;;;3.62;;
63653;SDS011;49809;47.418;19.080;2022-07-23T05:07:15;8.63;;;3.17;;
63653;SDS011;49809;47.418;19.080;2022-07-23T05:10:20;3.95;;;2.80;;
63653;SDS011;49809;47.418;19.080;2022-07-23T05:13:28;3.62;;;2.60;;
63653;SDS011;49809;47.418;19.080;2022-07-23T05:16:31;4.22;;;2.65;;
63653;SDS011;49809;47.418;19.080;2022-07-23T05:19:37;4.45;;;2.90;;
63653;SDS011;49809;47.418;19.080;2022-07-23T05:22:46;3.85;;;3.00;;
63653;SDS011;49809;47.418;19.080;2022-07-23T05:25:49;4.40;;;3.00;;
63653;SDS011;49809;47.418;19.080;2022-07-23T05:28:52;5.82;;;3.45;;
63653;SDS011;49809;47.418;19.080;2022-07-23T05:31:57;5.32;;;3.03;;
63653;SDS011;49809;47.418;19.080;2022-07-23T05:35:00;4.53;;;2.87;;
63653;SDS011;49809;47.418;19.080;2022-07-23T05:38:07;4.55;;;3.05;;
63653;SDS011;49809;47.418;19.080;2022-07-23T05:41:10;4.35;;;3.28;;
63653;SDS011;49809;47.418;19.080;2022-07-23T05:44:13;3.83;;;2.92;;
63653;SDS011;49809;47.418;19.080;2022-07-23T05:47:17;4.93;;;3.17;;
63653;SDS011;49809;47.418;19.080;2022-07-23T05:50:27;3.55;;;2.47;;
63653;SDS011;49809;47.418;19.080;2022-07-23T05:53:30;5.05;;;3.28;;
63653;SDS011;49809;47.418;19.080;2022-07-23T05:56:39;4.70;;;3.15;;
63653;SDS011;49809;47.418;19.080;2022-07-23T05:59:44;3.97;;;3.20;;
63653;SDS011;49809;47.418;19.080;2022-07-23T06:02:47;3.87;;;3.12;;
63653;SDS011;49809;47.418;19.080;2022-07-23T06:05:57;3.58;;;2.80;;
63653;SDS011;49809;47.418;19.080;2022-07-23T06:09:03;4.68;;;2.97;;
63653;SDS011;49809;47.418;19.080;2022-07-23T06:12:07;5.43;;;3.00;;
63653;SDS011;49809;47.418;19.080;2022-07-23T06:15:13;3.00;;;2.70;;
63653;SDS011;49809;47.418;19.080;2022-07-23T06:18:18;8.02;;;3.50;;
63653;SDS011;49809;47.418;19.080;2022-07-23T06:21:22;6.30;;;2.50;;
63653;SDS011;49809;47.418;19.080;2022-07-23T06:24:45;4.12;;;2.85;;
63653;SDS011;49809;47.418;19.080;2022-07-23T06:27:48;3.80;;;2.78;;
63653;SDS011;49809;47.418;19.080;2022-07-23T06:30:51;3.20;;;2.70;;
63653;SDS011;49809;47.418;19.080;2022-07-23T06:33:54;4.18;;;2.92;;
63653;SDS011;49809;47.418;19.080;2022-07-23T06:36:58;5.40;;;3.05;;
63653;SDS011;49809;47.418;19.080;2022-07-23T06:40:01;6.47;;;2.92;;
63653;SDS011;49809;47.418;19.080;2022-07-23T06:43:10;2.75;;;2.50;;
63653;SDS011;49809;47.418;19.080;2022-07-23T06:46:18;4.22;;;2.80;;
63653;SDS011;49809;47.418;19.080;2022-07-23T06:49:22;3.30;;;2.67;;
63653;SDS011;49809;47.418;19.080;2022-07-23T06:52:24;5.15;;;2.87;;
63653;SDS011;49809;47.418;19.080;2022-07-23T06:55:37;3.53;;;2.65;;
63653;SDS011;49809;47.418;19.080;2022-07-23T06:58:49;6.97;;;3.05;;
63653;SDS011;49809;47.418;19.080;2022-07-23T07:02:02;4.12;;;2.75;;
63653;SDS011;49809;47.418;19.080;2022-07-23T07:05:06;3.87;;;3.05;;
63653;SDS011;49809;47.418;19.080;2022-07-23T07:08:25;6.30;;;2.78;;
63653;SDS011;49809;47.418;19.080;2022-07-23T07:11:50;4.22;;;2.70;;
63653;SDS011;49809;47.418;19.080;2022-07-23T07:22:45;8.73;;;3.17;;
63653;SDS011;49809;47.418;19.080;2022-07-23T07:33:11;4.07;;;2.80;;
63653;SDS011;49809;47.418;19.080;2022-07-23T07:36:29;3.33;;;2.90;;
63653;SDS011;49809;47.418;19.080;2022-07-23T07:51:03;4.15;;;3.33;;
63653;SDS011;49809;47.418;19.080;2022-07-23T07:54:31;4.30;;;3.10;;
63653;SDS011;49809;47.418;19.080;2022-07-23T07:57:37;5.87;;;2.85;;
63653;SDS011;49809;47.418;19.080;2022-07-23T08:00:41;4.87;;;3.00;;
63653;SDS011;49809;47.418;19.080;2022-07-23T08:03:45;4.43;;;3.08;;
63653;SDS011;49809;47.418;19.080;2022-07-23T08:06:52;6.70;;;3.05;;
63653;SDS011;49809;47.418;19.080;2022-07-23T08:10:29;4.12;;;2.75;;
63653;SDS011;49809;47.418;19.080;2022-07-23T08:21:10;6.80;;;3.10;;
63653;SDS011;49809;47.418;19.080;2022-07-23T08:24:18;4.70;;;2.70;;
63653;SDS011;49809;47.418;19.080;2022-07-23T08:27:37;3.53;;;2.67;;
63653;SDS011;49809;47.418;19.080;2022-07-23T08:30:41;5.25;;;3.37;;
63653;SDS011;49809;47.418;19.080;2022-07-23T08:33:45;3.67;;;2.97;;
63653;SDS011;49809;47.418;19.080;2022-07-23T08:36:49;5.00;;;2.80;;
63653;SDS011;49809;47.418;19.080;2022-07-23T08:39:52;3.75;;;2.92;;
63653;SDS011;49809;47.418;19.080;2022-07-23T08:50:47;2.15;;;1.92;;
63653;SDS011;49809;47.418;19.080;2022-07-23T08:57:35;2.45;;;1.98;;
63653;SDS011;49809;47.418;19.080;2022-07-23T10:09:25;2.70;;;2.50;;
63653;SDS011;49809;47.418;19.080;2022-07-23T10:12:46;3.05;;;2.37;;
63653;SDS011;49809;47.418;19.080;2022-07-23T10:16:10;3.53;;;2.30;;
63653;SDS011;49809;47.418;19.080;2022-07-23T10:19:29;4.07;;;2.58;;
63653;SDS011;49809;47.418;19.080;2022-07-23T10:22:37;3.60;;;2.53;;
63653;SDS011;49809;47.418;19.080;2022-07-23T11:59:27;3.15;;;2.92;;
63653;SDS011;49809;47.418;19.080;2022-07-23T12:58:46;3.45;;;3.10;;
63653;SDS011;49809;47.418;19.080;2022-07-23T13:05:29;3.17;;;2.83;;
63653;SDS011;49809;47.418;19.080;2022-07-23T13:39:08;3.40;;;3.10;;
63653;SDS011;49809;47.418;19.080;2022-07-23T13:53:38;3.40;;;2.90;;
63653;SDS011;49809;47.418;19.080;2022-07-23T13:59:57;3.30;;;3.00;;
63653;SDS011;49809;47.418;19.080;2022-07-23T14:03:07;3.30;;;3.00;;
63653;SDS011;49809;47.418;19.080;2022-07-23T14:06:21;3.40;;;2.83;;
63653;SDS011;49809;47.418;19.080;2022-07-23T14:09:36;3.05;;;2.75;;
63653;SDS011;49809;47.418;19.080;2022-07-23T14:12:43;3.17;;;2.87;;
63653;SDS011;49809;47.418;19.080;2022-07-23T14:15:47;5.57;;;2.90;;
63653;SDS011;49809;47.418;19.080;2022-07-23T14:19:07;3.37;;;3.05;;
63653;SDS011;49809;47.418;19.080;2022-07-23T14:22:13;3.22;;;2.92;;
63653;SDS011;49809;47.418;19.080;2022-07-23T14:25:17;4.53;;;2.80;;
63653;SDS011;49809;47.418;19.080;2022-07-23T14:28:22;2.95;;;2.65;;
63653;SDS011;49809;47.418;19.080;2022-07-23T14:46:13;2.92;;;2.72;;
63653;SDS011;49809;47.418;19.080;2022-07-23T14:49:39;2.97;;;2.55;;
63653;SDS011;49809;47.418;19.080;2022-07-23T14:56:25;4.15;;;2.92;;
63653;SDS011;49809;47.418;19.080;2022-07-23T14:59:39;4.97;;;3.83;;
63653;SDS011;49809;47.418;19.080;2022-07-23T15:02:45;3.20;;;2.90;;
63653;SDS011;49809;47.418;19.080;2022-07-23T15:05:59;3.35;;;3.03;;
63653;SDS011;49809;47.418;19.080;2022-07-23T15:09:02;3.17;;;2.70;;
63653;SDS011;49809;47.418;19.080;2022-07-23T15:15:14;3.15;;;2.85;;
63653;SDS011;49809;47.418;19.080;2022-07-23T15:18:17;3.40;;;2.95;;
63653;SDS011;49809;47.418;19.080;2022-07-23T15:21:35;4.50;;;3.17;;
63653;SDS011;49809;47.418;19.080;2022-07-23T15:24:56;3.92;;;3.53;;
63653;SDS011;49809;47.418;19.080;2022-07-23T15:28:02;4.40;;;4.00;;
63653;SDS011;49809;47.418;19.080;2022-07-23T15:31:10;5.35;;;4.65;;
63653;SDS011;49809;47.418;19.080;2022-07-23T15:38:00;6.25;;;5.30;;
63653;SDS011;49809;47.418;19.080;2022-07-23T15:52:21;7.10;;;4.60;;
63653;SDS011;49809;47.418;19.080;2022-07-23T15:59:00;8.65;;;4.28;;
63653;SDS011;49809;47.418;19.080;2022-07-23T16:10:18;4.57;;;3.90;;
63653;SDS011;49809;47.418;19.080;2022-07-23T16:28:32;5.57;;;4.65;;
63653;SDS011;49809;47.418;19.080;2022-07-23T16:35:29;4.72;;;4.22;;
63653;SDS011;49809;47.418;19.080;2022-07-23T16:38:51;6.28;;;4.22;;
63653;SDS011;49809;47.418;19.080;2022-07-23T16:41:57;7.87;;;4.72;;
63653;SDS011;49809;47.418;19.080;2022-07-23T16:45:00;6.00;;;4.15;;
63653;SDS011;49809;47.418;19.080;2022-07-23T16:48:11;7.97;;;5.00;;
63653;SDS011;49809;47.418;19.080;2022-07-23T17:06:37;6.22;;;4.20;;
63653;SDS011;49809;47.418;19.080;2022-07-23T17:09:40;5.25;;;3.75;;
63653;SDS011;49809;47.418;19.080;2022-07-23T17:12:58;4.72;;;3.90;;
63653;SDS011;49809;47.418;19.080;2022-07-23T17:16:01;5.97;;;4.20;;
63653;SDS011;49809;47.418;19.080;2022-07-23T17:19:04;4.62;;;3.90;;
63653;SDS011;49809;47.418;19.080;2022-07-23T17:22:08;7.07;;;4.93;;
63653;SDS011;49809;47.418;19.080;2022-07-23T17:25:11;5.60;;;4.35;;
63653;SDS011;49809;47.418;19.080;2022-07-23T17:28:18;5.60;;;4.12;;
63653;SDS011;49809;47.418;19.080;2022-07-23T17:31:21;5.97;;;3.80;;
63653;SDS011;49809;47.418;19.080;2022-07-23T17:34:26;7.70;;;4.70;;
63653;SDS011;49809;47.418;19.080;2022-07-23T17:37:33;5.55;;;4.05;;
63653;SDS011;49809;47.418;19.080;2022-07-23T17:40:38;6.30;;;4.62;;
63653;SDS011;49809;47.418;19.080;2022-07-23T17:43:41;6.53;;;4.25;;
63653;SDS011;49809;47.418;19.080;2022-07-23T17:46:47;5.87;;;3.83;;
63653;SDS011;49809;47.418;19.080;2022-07-23T17:49:50;4.82;;;4.30;;
63653;SDS011;49809;47.418;19.080;2022-07-23T17:52:54;4.87;;;3.92;;
63653;SDS011;49809;47.418;19.080;2022-07-23T17:59:03;4.57;;;3.58;;
63653;SDS011;49809;47.418;19.080;2022-07-23T18:02:06;4.72;;;3.78;;
63653;SDS011;49809;47.418;19.080;2022-07-23T18:05:10;4.28;;;3.62;;
63653;SDS011;49809;47.418;19.080;2022-07-23T18:08:13;6.32;;;4.30;;
63653;SDS011;49809;47.418;19.080;2022-07-23T18:11:16;5.12;;;3.60;;
63653;SDS011;49809;47.418;19.080;2022-07-23T18:14:23;5.82;;;3.92;;
63653;SDS011;49809;47.418;19.080;2022-07-23T18:17:27;5.37;;;4.20;;
63653;SDS011;49809;47.418;19.080;2022-07-23T18:20:32;4.62;;;3.65;;
63653;SDS011;49809;47.418;19.080;2022-07-23T18:23:39;5.12;;;3.78;;
63653;SDS011;49809;47.418;19.080;2022-07-23T18:26:42;5.22;;;3.65;;
63653;SDS011;49809;47.418;19.080;2022-07-23T18:29:48;4.43;;;3.30;;
63653;SDS011;49809;47.418;19.080;2022-07-23T18:32:53;3.78;;;3.22;;
63653;SDS011;49809;47.418;19.080;2022-07-23T18:35:57;4.30;;;3.25;;
63653;SDS011;49809;47.418;19.080;2022-07-23T18:39:02;3.78;;;2.95;;
63653;SDS011;49809;47.418;19.080;2022-07-23T18:42:06;5.18;;;3.28;;
63653;SDS011;49809;47.418;19.080;2022-07-23T18:45:12;4.20;;;3.13;;
63653;SDS011;49809;47.418;19.080;2022-07-23T18:48:18;3.97;;;3.35;;
63653;SDS011;49809;47.418;19.080;2022-07-23T18:51:26;4.57;;;3.75;;
63653;SDS011;49809;47.418;19.080;2022-07-23T18:54:30;5.68;;;3.50;;
63653;SDS011;49809;47.418;19.080;2022-07-23T18:57:50;6.30;;;3.62;;
63653;SDS011;49809;47.418;19.080;2022-07-23T19:04:48;4.55;;;3.58;;
63653;SDS011;49809;47.418;19.080;2022-07-23T19:07:56;4.72;;;3.97;;
63653;SDS011;49809;47.418;19.080;2022-07-23T19:11:00;4.93;;;3.70;;
63653;SDS011;49809;47.418;19.080;2022-07-23T19:14:05;7.00;;;4.20;;
63653;SDS011;49809;47.418;19.080;2022-07-23T19:17:12;5.05;;;3.83;;
63653;SDS011;49809;47.418;19.080;2022-07-23T19:20:16;4.45;;;4.03;;
63653;SDS011;49809;47.418;19.080;2022-07-23T19:23:19;5.62;;;3.92;;
63653;SDS011;49809;47.418;19.080;2022-07-23T19:26:28;5.57;;;3.95;;
63653;SDS011;49809;47.418;19.080;2022-07-23T19:29:36;6.32;;;4.07;;
63653;SDS011;49809;47.418;19.080;2022-07-23T19:32:39;5.30;;;3.83;;
63653;SDS011;49809;47.418;19.080;2022-07-23T19:35:44;6.68;;;4.43;;
63653;SDS011;49809;47.418;19.080;2022-07-23T19:38:53;6.93;;;4.62;;
63653;SDS011;49809;47.418;19.080;2022-07-23T19:41:55;6.87;;;4.55;;
63653;SDS011;49809;47.418;19.080;2022-07-23T19:44:59;4.97;;;3.95;;
63653;SDS011;49809;47.418;19.080;2022-07-23T19:48:04;7.45;;;3.92;;
63653;SDS011;49809;47.418;19.080;2022-07-23T19:51:07;5.65;;;4.20;;
63653;SDS011;49809;47.418;19.080;2022-07-23T19:54:10;5.90;;;4.35;;
63653;SDS011;49809;47.418;19.080;2022-07-23T19:57:15;5.20;;;4.10;;
63653;SDS011;49809;47.418;19.080;2022-07-23T20:00:20;5.80;;;4.25;;
63653;SDS011;49809;47.418;19.080;2022-07-23T20:03:25;8.82;;;4.80;;
63653;SDS011;49809;47.418;19.080;2022-07-23T20:06:30;5.95;;;4.70;;
63653;SDS011;49809;47.418;19.080;2022-07-23T20:09:33;6.97;;;4.37;;
63653;SDS011;49809;47.418;19.080;2022-07-23T20:12:36;5.43;;;4.10;;
63653;SDS011;49809;47.418;19.080;2022-07-23T20:16:01;6.55;;;4.37;;
63653;SDS011;49809;47.418;19.080;2022-07-23T20:19:06;5.55;;;4.45;;
63653;SDS011;49809;47.418;19.080;2022-07-23T20:22:14;6.87;;;4.47;;
63653;SDS011;49809;47.418;19.080;2022-07-23T20:25:18;6.03;;;4.53;;
63653;SDS011;49809;47.418;19.080;2022-07-23T20:28:35;7.50;;;4.43;;
63653;SDS011;49809;47.418;19.080;2022-07-23T20:31:38;5.28;;;4.45;;
63653;SDS011;49809;47.418;19.080;2022-07-23T20:34:42;5.30;;;4.40;;
63653;SDS011;49809;47.418;19.080;2022-07-23T20:37:45;7.22;;;4.72;;
63653;SDS011;49809;47.418;19.080;2022-07-23T20:40:52;5.35;;;4.50;;
63653;SDS011;49809;47.418;19.080;2022-07-23T20:43:55;6.18;;;4.47;;
63653;SDS011;49809;47.418;19.080;2022-07-23T20:46:58;8.00;;;4.50;;
63653;SDS011;49809;47.418;19.080;2022-07-23T20:50:03;7.35;;;4.85;;
63653;SDS011;49809;47.418;19.080;2022-07-23T20:53:19;6.47;;;4.62;;
63653;SDS011;49809;47.418;19.080;2022-07-23T20:56:24;6.83;;;4.70;;
63653;SDS011;49809;47.418;19.080;2022-07-23T20:59:30;6.40;;;4.33;;
63653;SDS011;49809;47.418;19.080;2022-07-23T21:02:33;5.60;;;4.37;;
63653;SDS011;49809;47.418;19.080;2022-07-23T21:05:37;8.02;;;4.60;;
63653;SDS011;49809;47.418;19.080;2022-07-23T21:08:40;6.65;;;4.45;;
63653;SDS011;49809;47.418;19.080;2022-07-23T21:11:43;5.82;;;4.22;;
63653;SDS011;49809;47.418;19.080;2022-07-23T21:14:46;5.53;;;3.55;;
63653;SDS011;49809;47.418;19.080;2022-07-23T21:17:49;5.22;;;3.95;;
63653;SDS011;49809;47.418;19.080;2022-07-23T21:20:56;5.90;;;4.00;;
63653;SDS011;49809;47.418;19.080;2022-07-23T21:24:14;5.32;;;3.58;;
63653;SDS011;49809;47.418;19.080;2022-07-23T21:27:19;4.87;;;3.65;;
63653;SDS011;49809;47.418;19.080;2022-07-23T21:30:22;4.68;;;3.90;;
63653;SDS011;49809;47.418;19.080;2022-07-23T21:33:33;4.53;;;4.00;;
63653;SDS011;49809;47.418;19.080;2022-07-23T21:36:40;4.70;;;3.45;;
63653;SDS011;49809;47.418;19.080;2022-07-23T21:39:47;5.45;;;4.15;;
63653;SDS011;49809;47.418;19.080;2022-07-23T21:42:50;6.32;;;4.20;;
63653;SDS011;49809;47.418;19.080;2022-07-23T21:45:55;5.87;;;4.10;;
63653;SDS011;49809;47.418;19.080;2022-07-23T21:48:59;5.30;;;4.05;;
63653;SDS011;49809;47.418;19.080;2022-07-23T21:52:04;5.93;;;3.97;;
63653;SDS011;49809;47.418;19.080;2022-07-23T21:55:07;4.95;;;3.58;;
63653;SDS011;49809;47.418;19.080;2022-07-23T21:58:10;5.10;;;3.60;;
63653;SDS011;49809;47.418;19.080;2022-07-23T22:01:14;6.30;;;3.87;;
63653;SDS011;49809;47.418;19.080;2022-07-23T22:04:20;5.28;;;3.42;;
63653;SDS011;49809;47.418;19.080;2022-07-23T22:07:23;4.07;;;3.10;;
63653;SDS011;49809;47.418;19.080;2022-07-23T22:10:27;5.90;;;3.30;;
63653;SDS011;49809;47.418;19.080;2022-07-23T22:13:32;4.30;;;3.08;;
63653;SDS011;49809;47.418;19.080;2022-07-23T22:16:35;4.37;;;3.20;;
63653;SDS011;49809;47.418;19.080;2022-07-23T22:19:38;6.20;;;4.65;;
63653;SDS011;49809;47.418;19.080;2022-07-23T22:22:41;6.22;;;4.60;;
63653;SDS011;49809;47.418;19.080;2022-07-23T22:25:48;6.70;;;4.32;;
63653;SDS011;49809;47.418;19.080;2022-07-23T22:28:51;6.47;;;4.47;;
63653;SDS011;49809;47.418;19.080;2022-07-23T22:31:54;5.80;;;4.35;;
63653;SDS011;49809;47.418;19.080;2022-07-23T22:34:57;6.32;;;4.18;;
63653;SDS011;49809;47.418;19.080;2022-07-23T22:38:02;6.50;;;4.47;;
63653;SDS011;49809;47.418;19.080;2022-07-23T22:41:08;5.90;;;4.05;;
63653;SDS011;49809;47.418;19.080;2022-07-23T22:44:11;5.60;;;4.18;;
63653;SDS011;49809;47.418;19.080;2022-07-23T22:47:23;5.47;;;4.12;;
63653;SDS011;49809;47.418;19.080;2022-07-23T22:50:26;6.45;;;4.65;;
63653;SDS011;49809;47.418;19.080;2022-07-23T22:53:29;6.57;;;4.75;;
63653;SDS011;49809;47.418;19.080;2022-07-23T22:56:32;7.25;;;4.87;;
63653;SDS011;49809;47.418;19.080;2022-07-23T22:59:40;7.22;;;5.10;;
63653;SDS011;49809;47.418;19.080;2022-07-23T23:02:43;5.28;;;4.37;;
63653;SDS011;49809;47.418;19.080;2022-07-23T23:05:46;6.28;;;4.37;;
63653;SDS011;49809;47.418;19.080;2022-07-23T23:08:49;6.47;;;4.40;;
63653;SDS011;49809;47.418;19.080;2022-07-23T23:11:53;6.97;;;4.50;;
63653;SDS011;49809;47.418;19.080;2022-07-23T23:14:55;6.30;;;4.35;;
63653;SDS011;49809;47.418;19.080;2022-07-23T23:18:00;6.57;;;4.35;;
63653;SDS011;49809;47.418;19.080;2022-07-23T23:21:04;6.53;;;4.12;;
63653;SDS011;49809;47.418;19.080;2022-07-23T23:24:09;5.95;;;4.50;;
63653;SDS011;49809;47.418;19.080;2022-07-23T23:27:12;6.45;;;4.55;;
63653;SDS011;49809;47.418;19.080;2022-07-23T23:30:16;8.13;;;4.75;;
63653;SDS011;49809;47.418;19.080;2022-07-23T23:33:19;5.55;;;4.28;;
63653;SDS011;49809;47.418;19.080;2022-07-23T23:36:26;5.82;;;4.30;;
63653;SDS011;49809;47.418;19.080;2022-07-23T23:39:29;8.18;;;4.55;;
63653;SDS011;49809;47.418;19.080;2022-07-23T23:42:34;7.20;;;4.93;;
63653;SDS011;49809;47.418;19.080;2022-07-23T23:45:55;8.15;;;5.80;;
63653;SDS011;49809;47.418;19.080;2022-07-23T23:48:59;9.52;;;5.32;;
63653;SDS011;49809;47.418;19.080;2022-07-23T23:52:02;6.22;;;4.60;;
63653;SDS011;49809;47.418;19.080;2022-07-23T23:55:07;5.05;;;4.10;;
63653;SDS011;49809;47.418;19.080;2022-07-23T23:58:10;5.15;;;3.87;;
